Titan — 9HA4287 — position and weather

sailwx.info

Track history (hours):
 
Tides and Currents Weather Stations Pressure Air Temp Water Temp Dewpoint Dewpoint Depression Visibility Wind Speed Wind Dir Waves Ship Positions

Titan

Last reported at 2018-Jun-22 11:36 UTC. Time now 2018-Jun-23 23:43 UTC.
Position N 01°30' E 103°03'.

Length 369 m; draft 15.1 m.

Type: Ship (hazmat cat A). MMSI: 249558000.

Date/timePositionNaut miles runAvg speedWind from/ knotsBaromVisibWave heightAir tempDewpointWater temp
2018-Jun-22 11:36N 01°30' E 103°03'320.7
2018-Jun-22 11:26N 01°28' E 103°05'920.6
2018-Jun-22 10:59N 01°22' E 103°12'1019.8
2018-Jun-22 10:30N 01°17' E 103°21'1019.6
2018-Jun-22 10:01N 01°13' E 103°29'917.8
2018-Jun-22 09:30N 01°11' E 103°38'815.6
2018-Jun-22 09:00N 01°09' E 103°45'815.6
2018-Jun-22 08:31N 01°13' E 103°53'816.7
2018-Jun-22 08:01N 01°15' E 104°00'918.4
2018-Jun-22 07:30N 01°16' E 104°10'917.7
2018-Jun-22 06:59N 01°19' E 104°19'918.2
2018-Jun-22 06:28N 01°24' E 104°26'  
2018-Jun-19 20:02N 19°26' E 112°42'120.5
2018-Jun-19 20:00N 19°26' E 112°43'  
2018-Jun-17 12:56N 22°30' E 119°37'921.0
2018-Jun-17 12:30N 22°31' E 119°47'1020.5
2018-Jun-17 12:00N 22°32' E 119°58'1019.7
2018-Jun-17 11:31N 22°32' E 120°08'917.0
2018-Jun-17 11:00N 22°33' E 120°18'2 3.0
2018-Jun-17 10:30N 22°33' E 120°19'0 0.2
2018-Jun-17 09:57N 22°33' E 120°19'0 0.0
2018-Jun-17 09:27N 22°33' E 120°19'0 0.0
2018-Jun-17 08:57N 22°33' E 120°19'0 0.0
2018-Jun-17 08:27N 22°33' E 120°19'0 0.0
2018-Jun-17 07:57N 22°33' E 120°19'0 0.0
2018-Jun-17 07:27N 22°33' E 120°19'0 0.0
2018-Jun-17 06:57N 22°33' E 120°19'0 0.0
2018-Jun-17 06:09N 22°33' E 120°19'0 0.0
2018-Jun-17 05:57N 22°33' E 120°19'0 0.0
2018-Jun-17 05:15N 22°33' E 120°19'0 0.0
2018-Jun-17 04:57N 22°33' E 120°19'0 0.0
2018-Jun-17 04:27N 22°33' E 120°19'0 0.0
2018-Jun-17 03:57N 22°33' E 120°19'0 0.0
2018-Jun-17 03:21N 22°33' E 120°19'0 0.0
2018-Jun-17 02:57N 22°33' E 120°19'0 0.0
2018-Jun-17 02:27N 22°33' E 120°19'0 0.0
2018-Jun-16 22:57N 22°33' E 120°19'0 0.0
2018-Jun-16 22:30N 22°33' E 120°19'1 1.6
2018-Jun-16 21:58N 22°33' E 120°18'2 5.2
2018-Jun-16 21:29N 22°32' E 120°16'1 2.6
2018-Jun-16 21:00N 22°32' E 120°14'3 5.5
2018-Jun-16 20:30N 22°31' E 120°11'2 4.0
2018-Jun-16 19:59N 22°32' E 120°09'511.0
2018-Jun-16 19:30N 22°33' E 120°04'1 1.2
2018-Jun-16 18:59N 22°33' E 120°04'1 1.4
2018-Jun-16 18:27N 22°32' E 120°04'1 1.5
2018-Jun-16 18:00N 22°31' E 120°05'1 1.2
2018-Jun-16 17:29N 22°31' E 120°05'2 3.9
2018-Jun-16 17:00N 22°31' E 120°03'510.4
2018-Jun-16 16:30N 22°31' E 119°57'3 5.2
2018-Jun-16 15:59N 22°29' E 119°55'511.1
2018-Jun-16 15:30N 22°29' E 120°01'5 9.6
2018-Jun-16 14:59N 22°34' E 120°01'510.1
2018-Jun-16 14:29N 22°39' E 119°59'510.2
2018-Jun-16 14:00N 22°44' E 119°58'814.4
2018-Jun-16 13:29N 22°51' E 119°55'612.5
2018-Jun-16 12:59N 22°57' E 119°54'47310.3
2018-Jun-14 15:15N 30°35' E 122°08'4 0.1
2018-Jun-13 10:36N 30°37' E 122°04'2 7.3
2018-Jun-13 10:21N 30°36' E 122°06'513.0
2018-Jun-13 09:58N 30°34' E 122°11'511.3
2018-Jun-13 09:30N 30°33' E 122°17'3 5.9
2018-Jun-13 08:58N 30°33' E 122°21'3 5.8
2018-Jun-13 08:26N 30°33' E 122°25'10 8.4
2018-Jun-13 07:10N 30°31' E 122°37'2 9.0
2018-Jun-13 07:00N 30°31' E 122°38'4 0.5
2018-Jun-12 22:36N 30°28' E 122°41'0 0.0
2018-Jun-12 20:03N 30°28' E 122°41'0 0.2
2018-Jun-12 19:48N 30°28' E 122°41'0 0.0
2018-Jun-12 19:21N 30°28' E 122°41'0 0.0
2018-Jun-12 15:39N 30°28' E 122°41'0 0.0
2018-Jun-12 14:27N 30°28' E 122°41'0 0.1
2018-Jun-12 12:45N 30°28' E 122°41'  
Track history (hours):
 
Tides and Currents Weather Stations Pressure Air Temp Water Temp Dewpoint Dewpoint Depression Visibility Wind Speed Wind Dir Waves Ship Positions

Titan

Last reported at 2018-Jun-22 11:36 UTC. Time now 2018-Jun-23 23:43 UTC.
Position N 01°30' E 103°03'.

Length 369 m; draft 15.1 m.

Type: Ship (hazmat cat A). MMSI: 249558000.

Date/timePositionNaut miles runAvg speedWind from/ knotsBaromVisibWave heightAir tempDewpointWater temp
2018-Jun-22 11:36N 01°30' E 103°03'320.7
2018-Jun-22 11:26N 01°28' E 103°05'920.6
2018-Jun-22 10:59N 01°22' E 103°12'1019.8
2018-Jun-22 10:30N 01°17' E 103°21'1019.6
2018-Jun-22 10:01N 01°13' E 103°29'917.8
2018-Jun-22 09:30N 01°11' E 103°38'815.6
2018-Jun-22 09:00N 01°09' E 103°45'815.6
2018-Jun-22 08:31N 01°13' E 103°53'816.7
2018-Jun-22 08:01N 01°15' E 104°00'918.4
2018-Jun-22 07:30N 01°16' E 104°10'917.7
2018-Jun-22 06:59N 01°19' E 104°19'918.2
2018-Jun-22 06:28N 01°24' E 104°26'  
2018-Jun-19 20:02N 19°26' E 112°42'120.5
2018-Jun-19 20:00N 19°26' E 112°43'  
2018-Jun-17 12:56N 22°30' E 119°37'921.0
2018-Jun-17 12:30N 22°31' E 119°47'1020.5
2018-Jun-17 12:00N 22°32' E 119°58'1019.7
2018-Jun-17 11:31N 22°32' E 120°08'917.0
2018-Jun-17 11:00N 22°33' E 120°18'2 3.0
2018-Jun-17 10:30N 22°33' E 120°19'0 0.2
2018-Jun-17 09:57N 22°33' E 120°19'0 0.0
2018-Jun-17 09:27N 22°33' E 120°19'0 0.0
2018-Jun-17 08:57N 22°33' E 120°19'0 0.0
2018-Jun-17 08:27N 22°33' E 120°19'0 0.0
2018-Jun-17 07:57N 22°33' E 120°19'0 0.0
2018-Jun-17 07:27N 22°33' E 120°19'0 0.0
2018-Jun-17 06:57N 22°33' E 120°19'0 0.0
2018-Jun-17 06:09N 22°33' E 120°19'0 0.0
2018-Jun-17 05:57N 22°33' E 120°19'0 0.0
2018-Jun-17 05:15N 22°33' E 120°19'0 0.0
2018-Jun-17 04:57N 22°33' E 120°19'0 0.0
2018-Jun-17 04:27N 22°33' E 120°19'0 0.0
2018-Jun-17 03:57N 22°33' E 120°19'0 0.0
2018-Jun-17 03:21N 22°33' E 120°19'0 0.0
2018-Jun-17 02:57N 22°33' E 120°19'0 0.0
2018-Jun-17 02:27N 22°33' E 120°19'0 0.0
2018-Jun-16 22:57N 22°33' E 120°19'0 0.0
2018-Jun-16 22:30N 22°33' E 120°19'1 1.6
2018-Jun-16 21:58N 22°33' E 120°18'2 5.2
2018-Jun-16 21:29N 22°32' E 120°16'1 2.6
2018-Jun-16 21:00N 22°32' E 120°14'3 5.5
2018-Jun-16 20:30N 22°31' E 120°11'2 4.0
2018-Jun-16 19:59N 22°32' E 120°09'511.0
2018-Jun-16 19:30N 22°33' E 120°04'1 1.2
2018-Jun-16 18:59N 22°33' E 120°04'1 1.4
2018-Jun-16 18:27N 22°32' E 120°04'1 1.5
2018-Jun-16 18:00N 22°31' E 120°05'1 1.2
2018-Jun-16 17:29N 22°31' E 120°05'2 3.9
2018-Jun-16 17:00N 22°31' E 120°03'510.4
2018-Jun-16 16:30N 22°31' E 119°57'3 5.2
2018-Jun-16 15:59N 22°29' E 119°55'511.1
2018-Jun-16 15:30N 22°29' E 120°01'5 9.6
2018-Jun-16 14:59N 22°34' E 120°01'510.1
2018-Jun-16 14:29N 22°39' E 119°59'510.2
2018-Jun-16 14:00N 22°44' E 119°58'814.4
2018-Jun-16 13:29N 22°51' E 119°55'612.5
2018-Jun-16 12:59N 22°57' E 119°54'47310.3
2018-Jun-14 15:15N 30°35' E 122°08'4 0.1
2018-Jun-13 10:36N 30°37' E 122°04'2 7.3
2018-Jun-13 10:21N 30°36' E 122°06'513.0
2018-Jun-13 09:58N 30°34' E 122°11'511.3
2018-Jun-13 09:30N 30°33' E 122°17'3 5.9
2018-Jun-13 08:58N 30°33' E 122°21'3 5.8
2018-Jun-13 08:26N 30°33' E 122°25'10 8.4
2018-Jun-13 07:10N 30°31' E 122°37'2 9.0
2018-Jun-13 07:00N 30°31' E 122°38'4 0.5
2018-Jun-12 22:36N 30°28' E 122°41'0 0.0
2018-Jun-12 20:03N 30°28' E 122°41'0 0.2
2018-Jun-12 19:48N 30°28' E 122°41'0 0.0
2018-Jun-12 19:21N 30°28' E 122°41'0 0.0
2018-Jun-12 15:39N 30°28' E 122°41'0 0.0
2018-Jun-12 14:27N 30°28' E 122°41'0 0.1
2018-Jun-12 12:45N 30°28' E 122°41'  

Dump ship's entire track history